This is the latest recevied weather packets stored in our database for station/object kj4yre. If no packets are shown the sender has not sent any weather packets the latest 10 day(s).
| Time | Temp. | Humidity | Pressure | Rain* | Wind** | Luminosity | Snow |
|---|---|---|---|---|---|---|---|
| 1787902036 | 22.78° C | 97% | 1013.5 hPa | 0 mm | - | - | - |
| 1787901735 | 23.33° C | 96% | 1013.6 hPa | 0 mm | - | - | - |
| 1787900535 | 23.33° C | 94% | 1013.6 hPa | 0 mm | - | - | - |
| 1787899935 | 23.33° C | 96% | 1013.5 hPa | 0 mm | - | - | - |
| 1787899036 | 23.33° C | 95% | 1013.6 hPa | 0 mm | - | - | - |
| 1787898434 | 23.33° C | 95% | 1013.3 hPa | 0 mm | - | - | - |
| 1787898134 | 23.33° C | 95% | 1013.5 hPa | 0 mm | - | - | - |
| 1787897835 | 23.33° C | 95% | 1013.6 hPa | 0 mm | - | - | - |
| 1787897235 | 23.89° C | 94% | 1013.7 hPa | 0 mm | - | - | - |
| 1787895736 | 23.89° C | 95% | 1013.6 hPa | 0 mm | - | - | - |
| 1787895136 | 23.89° C | 94% | 1013.6 hPa | 0 mm | - | - | - |
| 1787894536 | 23.89° C | 94% | 1013.7 hPa | 0 mm | - | - | - |
| 1787894235 | 23.89° C | 94% | 1013.7 hPa | 0 mm | - | - | - |
| 1787892435 | 24.44° C | 94% | 1013.9 hPa | 0 mm | - | - | - |
| 1787892136 | 23.89° C | 95% | 1013.9 hPa | 0 mm | - | - | - |
| 1787890936 | 24.44° C | 95% | 1013.9 hPa | 0 mm | - | - | - |
| 1787888835 | 24.44° C | 95% | 1014 hPa | 0 mm | - | - | - |
| 1787886436 | 23.89° C | 97% | 1014.1 hPa | 0 mm | - | - | - |
| 1787882836 | 24.44° C | 94% | 1013.9 hPa | 0 mm | - | - | - |
| 1787881935 | 25° C | 92% | 1013.9 hPa | 0 mm | - | - | - |
| 1787880136 | 25° C | 90% | 1013.8 hPa | 0 mm | - | - | - |
| 1787879835 | 25° C | 90% | 1013.8 hPa | 0 mm | - | - | - |
| 1787879237 | 25° C | 91% | 1013.8 hPa | 0 mm | - | - | - |
| 1787878336 | 25.56° C | 89% | 1013.6 hPa | 0 mm | - | - | - |
| 1787878037 | 25.56° C | 89% | 1013.6 hPa | 0 mm | - | - | - |
* Rain latest hour (hover to see other rain measurements)
** Current wind speed in m/s (hover to see current wind gust speed)